»·PEaware :: N982YR KBFI-KPDX

N982YR :: KBFI-KPDX

FLIGHT INFORMATION

Flight Status: Arrived
Operator: Privately registered:
United States
More flights under this callsign
Pilot: Anonymous 15639 (15639)
Aircraft: CESSNA 172 SKYHAWK
(C172)
More flights by this aircraft type
Origin: KBFI Boeing Field/King Co Intl
United States
Destination: KPDX Portland Intl
United States
More flights between these airports :: More routes between these airports
Route: +KENT8 OLM V287 BTG
File this flight plan on PilotEdge
Remarks:
Altitude:
(Current/Filed)
10,000ft
Speed:
(Current/Filed)
115kts
Departed: 24-Aug-18 12:07 PM
Arrived: 24-Aug-18 01:18 PM
Distance/Time
Traveled:
117nm/1:10
Distance/Time
To Go:
Arrived

Flight Plot

Page will automatically refresh every two minutes.

Flight plan parsing failed; only flown route is shown


Map Options




Map Legend


Flown Route
Filed Route
Departure Airport
Arrival Airport
Navaid (VOR, NDB)
Fix

Horizontal Profiles

Position Reports

Time Latitude Longitude Heading Altitude Ground
Speed
24-Aug-18 11:52 47.537678 -122.304700 320 22ft 0kts
24-Aug-18 11:53 47.537678 -122.304700 320 22ft 0kts
24-Aug-18 11:54 47.537678 -122.304700 320 22ft 0kts
24-Aug-18 11:55 47.537678 -122.304700 320 22ft 0kts
24-Aug-18 11:56 47.537678 -122.304700 320 22ft 0kts
24-Aug-18 11:57 47.537678 -122.304700 320 22ft 0kts
24-Aug-18 11:58 47.537678 -122.304700 320 22ft 0kts
24-Aug-18 11:59 47.537678 -122.304700 320 22ft 0kts
24-Aug-18 12:00 47.537317 -122.304602 156 22ft 5kts
24-Aug-18 12:01 47.536911 -122.304968 238 22ft 0kts
24-Aug-18 12:02 47.536911 -122.304968 237 22ft 0kts
24-Aug-18 12:03 47.536911 -122.304968 238 22ft 0kts
24-Aug-18 12:04 47.536911 -122.304968 238 22ft 0kts
24-Aug-18 12:05 47.536911 -122.304968 238 22ft 0kts
24-Aug-18 12:06 47.536778 -122.305406 270 22ft 6kts
24-Aug-18 12:07 47.537888 -122.307085 229 22ft 5kts
24-Aug-18 12:08 47.528381 -122.300096 159 409ft 63kts
24-Aug-18 12:09 47.512437 -122.287958 155 1284ft 67kts
24-Aug-18 12:10 47.496254 -122.273679 149 2014ft 79kts
24-Aug-18 12:11 47.472124 -122.253473 151 2034ft 113kts
24-Aug-18 12:12 47.446569 -122.236988 186 2549ft 79kts
24-Aug-18 12:13 47.423289 -122.240732 185 3083ft 97kts
24-Aug-18 12:14 47.396352 -122.245574 185 3692ft 98kts
24-Aug-18 12:15 47.369653 -122.254293 201 4258ft 101kts
24-Aug-18 12:16 47.349792 -122.283926 227 4801ft 103kts
24-Aug-18 12:17 47.330538 -122.315486 225 5322ft 104kts
24-Aug-18 12:18 47.312614 -122.344918 227 5939ft 89kts
24-Aug-18 12:19 47.296018 -122.372183 229 6381ft 89kts
24-Aug-18 12:20 47.279375 -122.399563 230 6800ft 89kts
24-Aug-18 12:21 47.262633 -122.427123 231 7188ft 91kts
24-Aug-18 12:22 47.245599 -122.455143 232 7567ft 92kts
24-Aug-18 12:23 47.228138 -122.483833 233 7941ft 95kts
24-Aug-18 12:24 47.209999 -122.513655 234 8281ft 100kts
24-Aug-18 12:25 47.191337 -122.544290 234 8643ft 101kts
24-Aug-18 12:26 47.172509 -122.575150 234 8991ft 102kts
24-Aug-18 12:27 47.153539 -122.606193 234 9339ft 102kts
24-Aug-18 12:28 47.134161 -122.637919 234 9624ft 110kts
24-Aug-18 12:29 47.113601 -122.671229 233 9950ft 111kts
24-Aug-18 12:30 47.091527 -122.707067 233 10011ft 123kts
24-Aug-18 12:31 47.068372 -122.744748 233 10011ft 124kts
24-Aug-18 12:32 47.045364 -122.782155 233 10012ft 123kts
24-Aug-18 12:33 47.022433 -122.819388 233 10015ft 122kts
24-Aug-18 12:34 46.999723 -122.856015 233 10017ft 121kts
24-Aug-18 12:35 46.976955 -122.892081 233 10019ft 120kts
24-Aug-18 12:36 46.945275 -122.895639 169 10019ft 131kts
24-Aug-18 12:37 46.909317 -122.885198 171 10020ft 132kts
24-Aug-18 12:38 46.873276 -122.875220 172 10016ft 132kts
24-Aug-18 12:39 46.836854 -122.865322 172 9977ft 134kts
24-Aug-18 12:40 46.800639 -122.855538 172 10002ft 133kts
24-Aug-18 12:41 46.764218 -122.845736 172 10004ft 133kts
24-Aug-18 12:42 46.727681 -122.835928 172 10007ft 133kts
24-Aug-18 12:43 46.691099 -122.826128 172 10008ft 133kts
24-Aug-18 12:44 46.654645 -122.816379 172 10008ft 133kts
24-Aug-18 12:45 46.618127 -122.806626 172 10008ft 133kts
24-Aug-18 12:46 46.587602 -122.798484 172 10009ft 133kts
24-Aug-18 12:47 46.544938 -122.787120 172 10009ft 133kts
24-Aug-18 12:48 46.514548 -122.779037 172 10009ft 133kts
24-Aug-18 12:49 46.478002 -122.769329 172 10009ft 133kts
24-Aug-18 12:50 46.435387 -122.758024 172 10009ft 133kts
24-Aug-18 12:51 46.404884 -122.749947 173 10009ft 133kts
24-Aug-18 12:52 46.368218 -122.740887 173 10010ft 133kts
24-Aug-18 12:53 46.331665 -122.731855 173 10010ft 133kts
24-Aug-18 12:54 46.288926 -122.721293 173 10010ft 133kts
24-Aug-18 12:55 46.258351 -122.714248 175 10010ft 133kts
24-Aug-18 12:56 46.221424 -122.706845 175 9785ft 136kts
24-Aug-18 12:57 46.184036 -122.699756 175 9194ft 135kts
24-Aug-18 12:58 46.146851 -122.693149 175 8603ft 134kts
24-Aug-18 12:59 46.110061 -122.687006 175 8013ft 132kts
24-Aug-18 13:00 46.074069 -122.678303 170 7425ft 131kts
24-Aug-18 13:01 46.038392 -122.668778 168 6834ft 130kts
24-Aug-18 13:02 46.003019 -122.659348 166 6242ft 129kts
24-Aug-18 13:03 45.968510 -122.650013 164 6003ft 123kts
24-Aug-18 13:04 45.935138 -122.640938 164 6001ft 120kts
24-Aug-18 13:05 45.902706 -122.632309 163 6001ft 118kts
24-Aug-18 13:06 45.870129 -122.623566 165 6004ft 121kts
24-Aug-18 13:07 45.836866 -122.614700 166 6007ft 123kts
24-Aug-18 13:08 45.802659 -122.605579 167 5994ft 125kts
24-Aug-18 13:09 45.768519 -122.595283 168 5998ft 125kts
24-Aug-18 13:10 45.737120 -122.575538 154 5559ft 120kts
24-Aug-18 13:11 45.707341 -122.554540 154 4960ft 119kts
24-Aug-18 13:12 45.677928 -122.533444 154 4363ft 118kts
24-Aug-18 13:13 45.648872 -122.512320 154 4000ft 112kts
24-Aug-18 13:14 45.620242 -122.491466 154 3562ft 122kts
24-Aug-18 13:15 45.587713 -122.491721 202 2366ft 119kts
24-Aug-18 13:16 45.563092 -122.518613 258 1079ft 104kts
24-Aug-18 13:17 45.568264 -122.552389 295 599ft 79kts
24-Aug-18 13:18 45.578681 -122.579154 298 150ft 70kts
24-Aug-18 13:19 45.584337 -122.591752 34 33ft 8kts
24-Aug-18 13:20 45.585268 -122.592913 299 33ft 17kts
24-Aug-18 13:21 45.588178 -122.600361 298 33ft 21kts
24-Aug-18 13:22 45.591381 -122.601852 44 33ft 18kts
24-Aug-18 13:23 45.593926 -122.596598 119 33ft 17kts
24-Aug-18 13:24 45.591169 -122.589544 119 33ft 21kts
24-Aug-18 13:25 45.588253 -122.582038 119 33ft 21kts
24-Aug-18 13:26 45.586203 -122.578718 219 33ft 3kts
24-Aug-18 13:27 45.586122 -122.579314 210 33ft 0kts

Navigation Log

Ident Type
Flight plan parsing failed, navigation log unavailable